Tiempo atmosférico en la estación meteorológica de Espiel, Córdoba (465 m.)



Fecha
DESCASC
Temp. máxima en grados centígrados (hora)
DESCASC
Temp. mínima en grados centígrados (hora)
DESCASC
Temp. media en grados centígrados
DESCASC
Racha de viento máxima en m/sg (hora)
DESCASC
Velocidad máxima media en intervalos de 10 minutos(hora)
DESCASC
Precipitaciones diarias en mm
DESCASC
Precipitaciones de 00:00 a 06:00 en mm
DESCASC
Precipitaciones de 06:00 a 12:00 en mm
DESCASC
Precipitaciones de 12:00 a 18:00 en mm
DESCASC
Precipitaciones de 18:00 a 24:00 en mm
DESCASC
25-04-2019 16.6 (16:50) 9.6 (23:59) 13.1 11.11 (01:30) 5.28 (18:50) 8.4 8.2 0.2 0 0
24-04-2019 13.2 (15:50) 4.4 (02:50) 8.8 13.61 (17:30) 5.28 (19:20) 10 0.2 0 2 7.8
23-04-2019 13.7 (14:30) 5.5 (23:59) 9.6 13.33 (07:20) 4.72 (17:40) 11.2 0 7.2 3.2 0.8
22-04-2019 20.3 (18:00) 6.1 (00:00) 13.2 9.72 (22:40) 3.33 (17:20) 0 0 0 0 0
21-04-2019 16.2 (12:40) 10.3 (00:00) 13.3 8.89 (12:20) 3.89 (12:30) 0 0 0 0 0
20-04-2019 15.4 (14:10) 6.4 (00:00) 10.9 14.44 (15:20) 6.39 (14:20) 5.4 0 5.4 0 0
19-04-2019 18 (15:00) 7.6 (00:00) 12.8 8.33 (19:40) 4.44 (19:50) 0 0 0 0 0
18-04-2019 16.2 (12:30) 9.1 (00:00) 12.7 6.39 (13:00) 3.61 (14:40) 3.4 0 0 0.6 2.8
17-04-2019 21.6 (14:10) 9.6 (00:00) 15.6 10.28 (19:50) 4.17 (17:40) 0 0 0 0 0
16-04-2019 24.4 (17:10) 5.1 (00:00) 14.7 7.22 (12:10) 2.78 (11:30) 0 0 0 0 0
15-04-2019 25 (16:20) 8.8 (00:00) 16.9 9.72 (18:00) 5 (20:30) 0 0 0 0 0
14-04-2019 25 (16:40) 6.3 (00:00) 15.7 5.28 (18:50) 2.78 (18:50) 0 0 0 0 0
13-04-2019 23.4 (18:20) 2 (00:00) 12.7 5.83 (16:00) 2.78 (14:20) 0 0 0 0 0
12-04-2019 21.2 (18:00) 1.6 (00:00) 11.4 5.83 (18:50) 2.78 (17:50) 0 0 0 0 0
11-04-2019 18.9 (16:10) 4.8 (00:00) 11.8 6.67 (15:20) 3.89 (16:20) 0 0 0 0 0
10-04-2019 16.9 (16:20) 6.5 (00:00) 11.7 10.28 (18:10) 5.28 (16:00) 0 0 0 0 0
09-04-2019 16 (16:40) 4.5 (00:00) 10.3 13.61 (19:20) 5.28 (19:20) 1.8 0.2 0 0 1.6
08-04-2019 15.7 (19:20) 8.4 (00:00) 12 9.72 (20:40) 4.72 (20:40) 11 1.2 1.4 6.2 2.2
07-04-2019 13.2 (15:40) 6.9 (00:00) 10 8.33 (01:40) 3.06 (01:40) 1 0.4 0 0 0.6
06-04-2019 13.4 (16:00) 5.9 (00:00) 9.6 11.67 (17:30) 5.56 (17:30) 3.2 0 0 2.6 0.6
05-04-2019 13 (17:00) 6.6 (00:00) 9.8 12.22 (18:00) 6.67 (18:00) 6 0 4.8 1 0.2
04-04-2019 18.7 (16:40) 0.8 (00:00) 9.8 8.06 (19:00) 3.61 (18:20) 0 0 0 0 0
03-04-2019 21.4 (16:30) 4.8 (00:00) 13.1 11.39 (18:10) 5.28 (19:20) 0 0 0 0 0
02-04-2019 20.4 (17:20) 8.2 (00:00) 14.3 5.56 (18:50) 2.22 (15:50) 0 0 0 0 0
01-04-2019 18.1 (14:10) 8.2 (00:00) 13.2 6.11 (12:30) 3.33 (14:00) 0 0 0 0 0
31-03-2019 18.9 (16:20) 10.6 (00:00) 14.8 5.83 (16:50) 3.33 (16:50) 1.2 0 0.2 0 1
30-03-2019 22.1 (16:20) 4.6 (00:00) 13.4 6.94 (13:00) 2.78 (12:00) 2.8 0 0 0 2.8
29-03-2019 20.2 (17:10) -0.4 (00:00) 9.9 7.5 (12:20) 3.06 (13:10) 0 0 0 0 0
28-03-2019 20.1 (18:00) 1.9 (00:00) 11 8.61 (10:30) 4.44 (10:40) 0 0 0 0 0
27-03-2019 20 (17:20) 2.6 (00:00) 11.3 9.44 (09:20) 5 (09:20) 0 0 0 0 0

Gráficas

Temp. máximas Temp. mínimas Temp. medias Precipitaciones Rachas de viento máximas Velocidades máximas media en intervalos de 10 minutos

Datos horarios

Fecha y hora oficial Temperatura (ºC) Velocidad del viento (km/h) Dirección del viento Racha (km/h) Dirección de racha Precipitación (mm) Presión (hPa) Tendencia (hPa) Humedad (%)
2019-04-25 23:00:00 10.6 7 Nordeste 15 Nordeste 0 -- -- 68
2019-04-25 22:00:00 11 7 Nordeste 15 Este 0 -- -- 67
2019-04-25 21:00:00 12.6 10 Nordeste 35 Norte 0 -- -- 65
2019-04-25 20:00:00 14.5 7 Nordeste 17 Norte 0 -- -- 60
2019-04-25 19:00:00 13.9 11 Norte 37 Nordeste 0 -- -- 67
2019-04-25 18:00:00 15.4 10 Norte 40 Norte 0 -- -- 58
2019-04-25 17:00:00 16.6 10 Noroeste 31 Norte 0 -- -- 53
2019-04-25 16:00:00 15.9 13 Norte 32 Noroeste 0 -- -- 56
2019-04-25 15:00:00 15.1 10 Norte 26 Noroeste 0 -- -- 57
2019-04-25 14:00:00 13.9 10 Norte 35 Norte 0 -- -- 63
2019-04-25 13:00:00 14.5 11 Noroeste 33 Noroeste 0 -- -- 57
2019-04-25 12:00:00 14.4 15 Norte 31 Norte 0 -- -- 60
2019-04-25 11:00:00 12.8 12 Norte 26 Noroeste 0 -- -- 70
2019-04-25 10:00:00 11.8 12 Norte 22 Noroeste 0 -- -- 79
2019-04-25 09:00:00 11 4 Noroeste 12 Noroeste 0 -- -- 89
2019-04-25 08:00:00 10.8 3 Noroeste 9 Noroeste 0 -- -- 92
2019-04-25 07:00:00 10.8 4 Norte 11 Nordeste 0.2 -- -- 94
2019-04-25 06:00:00 10.8 6 Nordeste 14 Nordeste 1.2 -- -- 93
2019-04-25 05:00:00 12.1 4 Nordeste 26 Norte 2.2 -- -- 92
2019-04-25 04:00:00 12.8 9 Noroeste 26 Noroeste 1.6 -- -- 92
2019-04-25 03:00:00 13 11 Noroeste 33 Noroeste 1.2 -- -- 92
2019-04-25 02:00:00 12.9 7 Noroeste 40 Noroeste 1 -- -- 92
2019-04-25 01:00:00 12.9 10 Noroeste 32 Noroeste 1 -- -- 92
2019-04-25 00:00:00 12.9 11 Oeste 34 Noroeste 0.6 -- -- 91
2019-04-24 23:00:00 12.7 10 Oeste 31 Noroeste 2 -- -- 92
2019-04-24 22:00:00 12.5 12 Oeste 36 Oeste 2.6 -- -- 92
2019-04-24 21:00:00 12.5 14 Oeste 40 Oeste 1.4 -- -- 92
2019-04-24 20:00:00 12.5 14 Noroeste 45 Oeste 0.6 -- -- 91
2019-04-24 19:00:00 12.4 13 Oeste 43 Noroeste 0.6 -- -- 90
2019-04-24 18:00:00 12.6 17 Oeste 49 Oeste 0.2 -- -- 88
2019-04-24 17:00:00 12.5 13 Oeste 46 Oeste 0.8 -- -- 91
2019-04-24 16:00:00 13 17 Oeste 44 Noroeste 0.4 -- -- 84
2019-04-24 15:00:00 12.3 11 Oeste 41 Oeste 0.2 -- -- 88
2019-04-24 14:00:00 12.6 13 Oeste 35 Noroeste 0.4 -- -- 86
2019-04-24 13:00:00 12.8 12 Oeste 36 Noroeste 0 -- -- 79
2019-04-24 12:00:00 11 9 Noroeste 30 Oeste 0 -- -- 87
2019-04-24 11:00:00 10.5 10 Oeste 32 Oeste 0 -- -- 86
2019-04-24 10:00:00 9.1 10 Oeste 32 Sudoeste 0 -- -- 90
2019-04-24 09:00:00 8.4 10 Sudoeste 23 Noroeste 0 -- -- 91
2019-04-24 08:00:00 7.3 3 Sudoeste 19 Sudoeste 0 -- -- 92
2019-04-24 07:00:00 6.8 5 Sudoeste 10 Sudoeste 0 -- -- 92
2019-04-24 06:00:00 5.9 3 Sudoeste 11 Noroeste 0 -- -- 91
2019-04-24 05:00:00 6.6 2 Oeste 14 Noroeste 0.2 -- -- 90
2019-04-24 04:00:00 5.9 2 Oeste 9 Noroeste 0 -- -- 94
2019-04-24 03:00:00 4.5 0 Calma 5 Sur 0 -- -- 93
2019-04-24 02:00:00 5.6 0 Calma 8 Nordeste 0 -- -- 93
2019-04-24 01:00:00 5.1 0 Calma 4 Noroeste 0 -- -- 93
2019-04-24 00:00:00 5.5 0 Calma 6 Nordeste 0 -- -- 90
2019-04-23 23:00:00 6.9 4 Nordeste 15 Nordeste 0.6 -- -- 87
2019-04-23 22:00:00 7.3 6 Nordeste 28 Nordeste 0 -- -- 80
2019-04-23 21:00:00 9.5 2 Nordeste 23 Norte 0.2 -- -- 74
2019-04-23 20:00:00 11.5 4 Noroeste 20 Noroeste 0 -- -- 72
2019-04-23 19:00:00 11.1 8 Norte 31 Norte 0 -- -- 71
2019-04-23 18:00:00 8.7 9 Nordeste 42 Norte 0.6 -- -- 82
2019-04-23 17:00:00 13 13 Noroeste 31 Noroeste 0 -- -- 61
2019-04-23 16:00:00 10.2 8 Norte 28 Norte 0.8 -- -- 80
2019-04-23 15:00:00 8.8 11 Norte 33 Norte 1.6 -- -- 77
2019-04-23 14:00:00 12.1 8 Oeste 26 Nordeste 0.2 -- -- 65
2019-04-23 13:00:00 12.3 12 Noroeste 27 Noroeste 0 -- -- 54
2019-04-23 12:00:00 11.2 13 Norte 27 Norte 0 -- -- 62
2019-04-23 11:00:00 9.3 12 Nordeste 23 Nordeste 0 -- -- 77
2019-04-23 10:00:00 8.6 7 Nordeste 14 Nordeste 0 -- -- 89
2019-04-23 09:00:00 8.3 6 Norte 28 Nordeste 0 -- -- 91
2019-04-23 08:00:00 9.3 6 Este 48 Norte 6.4 -- -- 89
2019-04-23 07:00:00 11.5 7 Oeste 24 Oeste 0.8 -- -- 86
2019-04-23 06:00:00 11.9 6 Noroeste 22 Noroeste 0 -- -- 80
2019-04-23 05:00:00 11.9 5 Noroeste 29 Noroeste 0 -- -- 80
2019-04-23 04:00:00 12.2 11 Noroeste 25 Oeste 0 -- -- 79
2019-04-23 03:00:00 12.4 8 Oeste 23 Noroeste 0 -- -- 79
2019-04-23 02:00:00 12.5 11 Oeste 27 Oeste 0 -- -- 85
2019-04-23 01:00:00 13 13 Oeste 35 Oeste 0 -- -- 82
2019-04-23 00:00:00 13.6 12 Oeste 31 Oeste 0 -- -- 76
2019-04-22 23:00:00 15.7 11 Noroeste 35 Oeste 0 -- -- 58
2019-04-22 22:00:00 16.9 12 Noroeste 27 Noroeste 0 -- -- 52
2019-04-22 21:00:00 18.4 6 Noroeste 22 Noroeste 0 -- -- 42
2019-04-22 20:00:00 19.4 6 Noroeste 23 Oeste 0 -- -- 43
2019-04-22 19:00:00 19.5 3 Oeste 22 Oeste 0 -- -- 51
2019-04-22 18:00:00 20.3 10 Noroeste 30 Noroeste 0 -- -- 50
2019-04-22 17:00:00 18.9 8 Noroeste 22 Noroeste 0 -- -- 52
2019-04-22 16:00:00 19.6 4 Noroeste 14 Norte 0 -- -- 45
2019-04-22 15:00:00 19.2 4 Oeste 11 Sudoeste 0 -- -- 49
2019-04-22 14:00:00 17.8 3 Noroeste 10 Oeste 0 -- -- 51
2019-04-22 13:00:00 18 6 Oeste 15 Oeste 0 -- -- 51
2019-04-22 12:00:00 16.5 7 Noroeste 16 Norte 0 -- -- 50
2019-04-22 11:00:00 14.5 3 Oeste 9 Noroeste 0 -- -- 63
2019-04-22 10:00:00 12.6 0 Calma 10 Norte 0 -- -- 71
2019-04-22 09:00:00 9.7 5 Nordeste 10 Norte 0 -- -- 83
2019-04-22 08:00:00 6.4 3 Nordeste 4 Nordeste 0 -- -- 92
2019-04-22 07:00:00 6.8 0 Calma 9 Nordeste 0 -- -- 87
2019-04-22 06:00:00 7.9 4 Nordeste 8 Nordeste 0 -- -- 85
2019-04-22 05:00:00 8.9 3 Este 8 Nordeste 0 -- -- 79
2019-04-22 04:00:00 10 0 Calma 6 Nordeste 0 -- -- 78
2019-04-22 03:00:00 10.2 5 Este 8 Este 0 -- -- 75
2019-04-22 02:00:00 10.9 3 Este 7 Este 0 -- -- 73
2019-04-22 01:00:00 11.5 0 Calma 13 Este 0 -- -- 70
2019-04-22 00:00:00 12 5 Este 12 Este 0 -- -- 67
2019-04-21 23:00:00 12.3 2 Nordeste 10 Este 0 -- -- 65
2019-04-21 22:00:00 12.4 0 Calma 9 Sudeste 0 -- -- 66
2019-04-21 21:00:00 13 7 Sudeste 18 Sur 0 -- -- 59
2019-04-21 20:00:00 13.6 3 Sudeste 21 Sudeste 0 -- -- 59
2019-04-21 19:00:00 14.1 6 Sudeste 21 Este 0 -- -- 59
2019-04-21 18:00:00 14.6 10 Sur 26 Sur 0 -- -- 57
2019-04-21 17:00:00 14.7 8 Sudeste 26 Sur 0 -- -- 58
2019-04-21 16:00:00 15.2 10 Sudeste 30 Sur 0 -- -- 56
2019-04-21 15:00:00 15.5 8 Este 29 Este 0 -- -- 55
2019-04-21 14:00:00 15.9 11 Este 25 Nordeste 0 -- -- 54
2019-04-21 13:00:00 15.1 10 Nordeste 32 Sur 0 -- -- 58
2019-04-21 12:00:00 13.7 12 Sudeste 23 Sudeste 0 -- -- 60
2019-04-21 11:00:00 14.2 11 Sudeste 24 Sudeste 0 -- -- 59
2019-04-21 10:00:00 12 7 Sudeste 22 Sudeste 0 -- -- 65
2019-04-21 09:00:00 11 8 Este 21 Sudeste 0 -- -- 69
2019-04-21 08:00:00 10.4 7 Este 21 Este 0 -- -- 70
2019-04-21 07:00:00 11 5 Sudeste 19 Nordeste 0 -- -- 68
2019-04-21 06:00:00 11.3 8 Este 19 Este 0 -- -- 68
2019-04-21 05:00:00 11.5 3 Este 12 Nordeste 0 -- -- 68
2019-04-21 04:00:00 11.6 4 Sudeste 10 Sudeste 0 -- -- 68
2019-04-21 03:00:00 11.4 0 Calma 13 Nordeste 0 -- -- 71
2019-04-21 02:00:00 11.9 3 Este 8 Este 0 -- -- 68
2019-04-21 01:00:00 12.1 5 Sudoeste 13 Sudoeste 0 -- -- 65
2019-04-21 00:00:00 12.5 0 Calma 9 Sur 0 -- -- 64
2019-04-20 23:00:00 12.9 3 Norte 17 Este 0 -- -- 62
2019-04-20 22:00:00 12.8 5 Sudeste 27 Sur 0 -- -- 63
2019-04-20 21:00:00 13.1 6 Sur 23 Sur 0 -- -- 66
2019-04-20 20:00:00 13.7 8 Sudeste 25 Sudeste 0 -- -- 64
2019-04-20 19:00:00 14.4 5 Este 26 Sur 0 -- -- 61
2019-04-20 18:00:00 14.9 12 Sur 40 Sur 0 -- -- 60
2019-04-20 17:00:00 15.3 9 Sudeste 36 Sur 0 -- -- 59
2019-04-20 16:00:00 14.7 15 Sur 52 Sur 0 -- -- 59
2019-04-20 15:00:00 15.1 14 Sur 46 Sur 0 -- -- 59
2019-04-20 14:00:00 15.3 14 Sur 36 Sur 0 -- -- 58
2019-04-20 13:00:00 14.6 12 Sur 36 Sur 0 -- -- 61
2019-04-20 12:00:00 13.5 10 Sudeste 25 Sur 0 -- -- 67
2019-04-20 11:00:00 12.4 7 Sudeste 23 Sur 0 -- -- 74
2019-04-20 10:00:00 11.2 6 Sudeste 19 Este 0.4 -- -- 81
2019-04-20 09:00:00 10.3 4 Sur 13 Sur 4.8 -- -- 86
2019-04-20 08:00:00 10.8 5 Sudeste 20 Sur 0.2 -- -- 77
2019-04-20 07:00:00 10.1 7 Nordeste 14 Nordeste 0 -- -- 80
2019-04-20 06:00:00 9 5 Nordeste 12 Nordeste 0 -- -- 86
2019-04-20 05:00:00 8 0 Calma 9 Este 0 -- -- 89
2019-04-20 04:00:00 7 2 Nordeste 7 Nordeste 0 -- -- 93
2019-04-20 03:00:00 6.5 0 Calma 5 Norte 0 -- -- 93
2019-04-20 02:00:00 6.6 3 Nordeste 5 Nordeste 0 -- -- 93
2019-04-20 01:00:00 7.2 2 Sudeste 6 Este 0 -- -- 91
2019-04-20 00:00:00 7.8 0 Calma 4 Este 0 -- -- 88
2019-04-19 23:00:00 9 0 Calma 6 Este 0 -- -- 85
2019-04-19 22:00:00 11 0 Calma 5 Sur 0 -- -- 82
2019-04-19 21:00:00 13.1 3 Sur 24 Sur 0 -- -- 71
2019-04-19 20:00:00 14.2 12 Sur 30 Sur 0 -- -- 59
2019-04-19 19:00:00 17.8 5 Noroeste 17 Norte 0 -- -- 53
2019-04-19 18:00:00 15.3 7 Norte 18 Noroeste 0 -- -- 63
2019-04-19 17:00:00 13.9 5 Norte 24 Este 0 -- -- 69
2019-04-19 16:00:00 14 14 Este 26 Sudeste 0 -- -- 63
2019-04-19 15:00:00 18 8 Oeste 14 Noroeste 0 -- -- 55
2019-04-19 14:00:00 15.7 5 Sur 10 Sudoeste 0 -- -- 62
2019-04-19 13:00:00 14.8 6 Noroeste 16 Sur 0 -- -- 61
2019-04-19 12:00:00 13.1 4 Sur 11 Sur 0 -- -- 71
2019-04-19 11:00:00 12.1 2 Sudoeste 7 Oeste 0 -- -- 78
2019-04-19 10:00:00 10 3 Oeste 6 Sur 0 -- -- 90
2019-04-19 09:00:00 9.1 0 Calma 5 Nordeste 0 -- -- 95
2019-04-19 08:00:00 8 0 Calma 3 Nordeste 0 -- -- 95
2019-04-19 07:00:00 8.2 0 Calma 4 Este 0 -- -- 95
2019-04-19 06:00:00 8.3 0 Calma 3 Sur 0 -- -- 95
2019-04-19 05:00:00 8.3 0 Calma 4 Sur 0 -- -- 95
2019-04-19 04:00:00 8.1 0 Calma 4 Sur 0 -- -- 94
2019-04-19 03:00:00 7.8 0 Calma 4 Este 0 -- -- 93
2019-04-19 02:00:00 8.6 2 Este 5 Este 0 -- -- 93
2019-04-19 01:00:00 9.2 0 Calma 5 Sur 0 -- -- 93
2019-04-19 00:00:00 9.5 0 Calma 4 Oeste 0 -- -- 94
2019-04-18 23:00:00 9.1 2 Sudeste 4 Sur 0 -- -- 92
2019-04-18 22:00:00 10.1 0 Calma 9 Sudeste 0 -- -- 90
2019-04-18 21:00:00 10.4 6 Sudeste 14 Sur 0.4 -- -- 86
2019-04-18 20:00:00 11.2 0 Calma 9 Noroeste 1.2 -- -- 86
2019-04-18 19:00:00 12.1 5 Noroeste 22 Noroeste 1.2 -- -- 78
2019-04-18 18:00:00 15 4 Oeste 14 Norte 0 -- -- 63
2019-04-18 17:00:00 13.9 9 Noroeste 15 Noroeste 0 -- -- 70
2019-04-18 16:00:00 13 6 Norte 15 Norte 0.2 -- -- 79
2019-04-18 15:00:00 11.1 9 Nordeste 23 Nordeste 0.4 -- -- 82
2019-04-18 14:00:00 14 7 Norte 19 Este 0 -- -- 65
2019-04-18 13:00:00 15.4 9 Este 23 Este 0 -- -- 63
2019-04-18 12:00:00 15 7 Noroeste 15 Oeste 0 -- -- 69
2019-04-18 11:00:00 14.8 3 Noroeste 9 Oeste 0 -- -- 65
2019-04-18 10:00:00 12.7 3 Oeste 5 Oeste 0 -- -- 72
2019-04-18 09:00:00 11.1 0 Calma 3 Oeste 0 -- -- 82
2019-04-18 08:00:00 10 2 Sur 3 Sur 0 -- -- 84
2019-04-18 07:00:00 11.2 2 Sudoeste 5 Sudoeste 0 -- -- 80
2019-04-18 06:00:00 11.3 3 Sudeste 4 Sudeste 0 -- -- 80
2019-04-18 05:00:00 11.2 3 Sur 6 Sur 0 -- -- 78
2019-04-18 04:00:00 11.3 3 Sur 6 Sur 0 -- -- 77
2019-04-18 03:00:00 11.8 0 Calma 4 Oeste 0 -- -- 74
2019-04-18 02:00:00 12.6 0 Calma 13 Sudoeste 0 -- -- 71
2019-04-18 01:00:00 13.4 5 Sudoeste 18 Sudoeste 0 -- -- 65
2019-04-18 00:00:00 14 4 Oeste 9 Sur 0 -- -- 63
2019-04-17 23:00:00 14.1 5 Noroeste 22 Norte 0 -- -- 62
2019-04-17 22:00:00 14.6 12 Noroeste 26 Noroeste 0 -- -- 66
2019-04-17 21:00:00 15.8 8 Noroeste 27 Noroeste 0 -- -- 70
2019-04-17 20:00:00 16.9 13 Noroeste 37 Norte 0 -- -- 62
2019-04-17 19:00:00 18.1 14 Oeste 33 Noroeste 0 -- -- 59
2019-04-17 18:00:00 18.9 14 Noroeste 36 Noroeste 0 -- -- 56
2019-04-17 17:00:00 19.6 14 Noroeste 32 Noroeste 0 -- -- 50
2019-04-17 16:00:00 20.1 6 Oeste 25 Oeste 0 -- -- 50
2019-04-17 15:00:00 20.3 8 Oeste 29 Oeste 0 -- -- 51
2019-04-17 14:00:00 21.5 9 Oeste 28 Oeste 0 -- -- 46
2019-04-17 13:00:00 20.3 11 Oeste 27 Oeste 0 -- -- 47
2019-04-17 12:00:00 20.4 8 Sudoeste 28 Sudoeste 0 -- -- 44
2019-04-17 11:00:00 18.1 6 Sudoeste 15 Sudoeste 0 -- -- 46
2019-04-17 10:00:00 15.2 2 Sudoeste 6 Sudoeste 0 -- -- 60
2019-04-17 09:00:00 11.5 2 Sur 5 Sur 0 -- -- 71
2019-04-17 08:00:00 10 0 Calma 9 Sur 0 -- -- 70
2019-04-17 07:00:00 11.6 5 Sur 13 Sur 0 -- -- 62
2019-04-17 06:00:00 12.8 6 Sur 12 Sur 0 -- -- 59
2019-04-17 05:00:00 13.4 6 Sur 15 Sudoeste 0 -- -- 60
2019-04-17 04:00:00 14.2 6 Sudoeste 21 Sur 0 -- -- 60
2019-04-17 03:00:00 14.4 9 Sur 23 Sudoeste 0 -- -- 52
2019-04-17 02:00:00 14.7 6 Sudoeste 15 Oeste 0 -- -- 40
2019-04-17 01:00:00 15.4 6 Sur 17 Sudoeste 0 -- -- 35
2019-04-17 00:00:00 15.1 5 Sur 12 Sudoeste 0 -- -- 48
2019-04-16 23:00:00 16 7 Sur 12 Sur 0 -- -- 52
2019-04-16 22:00:00 14.8 2 Sur 5 Sur 0 -- -- 64
2019-04-16 21:00:00 19.7 2 Sudoeste 10 Sur 0 -- -- 50
2019-04-16 20:00:00 23.6 4 Oeste 17 Sudoeste 0 -- -- 41
2019-04-16 19:00:00 24.3 6 Oeste 20 Sur 0 -- -- 35
2019-04-16 18:00:00 24.3 7 Oeste 21 Oeste 0 -- -- 30
2019-04-16 17:00:00 24.2 6 Oeste 19 Oeste 0 -- -- 26
2019-04-16 16:00:00 23.9 7 Oeste 18 Sudoeste 0 -- -- 26
2019-04-16 15:00:00 21.9 6 Sur 16 Sur 0 -- -- 33
2019-04-16 14:00:00 20.5 7 Sudoeste 22 Sur 0 -- -- 36
2019-04-16 13:00:00 19.2 8 Sur 26 Sur 0 -- -- 53
2019-04-16 12:00:00 18.4 10 Sur 23 Sudoeste 0 -- -- 53
2019-04-16 11:00:00 15.3 3 Oeste 7 Oeste 0 -- -- 66
2019-04-16 10:00:00 12.2 2 Oeste 4 Oeste 0 -- -- 78
2019-04-16 09:00:00 8.8 0 Calma 3 Nordeste 0 -- -- 96
2019-04-16 08:00:00 5.2 0 Calma 3 Sur 0 -- -- 93
2019-04-16 07:00:00 5.7 2 Nordeste 4 Este 0 -- -- 93
2019-04-16 06:00:00 6.3 0 Calma 5 Este 0 -- -- 93
2019-04-16 05:00:00 6.8 0 Calma 4 Este 0 -- -- 91
2019-04-16 04:00:00 8.2 3 Nordeste 7 Sudeste 0 -- -- 91
2019-04-16 03:00:00 8.4 3 Sur 4 Sur 0 -- -- 90
2019-04-16 02:00:00 9.3 0 Calma 4 Nordeste 0 -- -- 86
2019-04-16 01:00:00 10.9 0 Calma 5 Sur 0 -- -- 82
2019-04-16 00:00:00 13.1 0 Calma 6 Nordeste 0 -- -- 74
2019-04-15 23:00:00 15.2 4 Nordeste 21 Nordeste 0 -- -- 69
2019-04-15 22:00:00 16.9 14 Norte 33 Nordeste 0 -- -- 62
2019-04-15 21:00:00 18.2 13 Nordeste 31 Norte 0 -- -- 59
2019-04-15 20:00:00 20.9 10 Norte 26 Noroeste 0 -- -- 46
2019-04-15 19:00:00 22.4 12 Noroeste 30 Noroeste 0 -- -- 40
2019-04-15 18:00:00 24 13 Noroeste 35 Norte 0 -- -- 40
2019-04-15 17:00:00 24.5 14 Noroeste 33 Oeste 0 -- -- 35
2019-04-15 16:00:00 24.8 13 Noroeste 31 Oeste 0 -- -- 32
2019-04-15 15:00:00 24.3 13 Noroeste 24 Oeste 0 -- -- 30
2019-04-15 14:00:00 23.7 10 Oeste 25 Oeste 0 -- -- 37
2019-04-15 13:00:00 22.9 7 Oeste 19 Noroeste 0 -- -- 43
2019-04-15 12:00:00 21.2 4 Oeste 18 Noroeste 0 -- -- 51
2019-04-15 11:00:00 18.9 4 Sudoeste 13 Sudoeste 0 -- -- 59
2019-04-15 10:00:00 15.7 4 Sur 7 Sur 0 -- -- 81
2019-04-15 09:00:00 12.2 0 Calma 3 Noroeste 0 -- -- 97
2019-04-15 08:00:00 9 0 Calma 2 Este 0 -- -- 94
2019-04-15 07:00:00 9.2 0 Calma 2 Sudeste 0 -- -- 94
2019-04-15 06:00:00 9.7 0 Calma 3 Nordeste 0 -- -- 93
2019-04-15 05:00:00 10.4 0 Calma 3 Sur 0 -- -- 92
2019-04-15 04:00:00 11.3 0 Calma 5 Noroeste 0 -- -- 90
2019-04-15 03:00:00 12 0 Calma 4 Sur 0 -- -- 88
2019-04-15 02:00:00 13 2 Sur 4 Sur 0 -- -- 88
2019-04-15 01:00:00 13.8 0 Calma 2 Sudeste 0 -- -- 85
2019-04-15 00:00:00 14.7 0 Calma 3 Nordeste 0 -- -- 80
2019-04-14 23:00:00 16.1 0 Calma 3 Nordeste 0 -- -- 74
2019-04-14 22:00:00 17.1 0 Calma 5 Sur 0 -- -- 70
2019-04-14 21:00:00 19.2 0 Calma 8 Sur 0 -- -- 63
2019-04-14 20:00:00 21.8 3 Oeste 14 Noroeste 0 -- -- 55
2019-04-14 19:00:00 23.1 9 Noroeste 19 Noroeste 0 -- -- 51
2019-04-14 18:00:00 23.5 5 Noroeste 12 Norte 0 -- -- 46
2019-04-14 17:00:00 24.9 8 Noroeste 14 Noroeste 0 -- -- 43
2019-04-14 16:00:00 24.1 8 Noroeste 13 Noroeste 0 -- -- 45
2019-04-14 15:00:00 23 6 Noroeste 14 Oeste 0 -- -- 50
2019-04-14 14:00:00 22.3 5 Noroeste 10 Noroeste 0 -- -- 54
2019-04-14 13:00:00 20 4 Sudoeste 11 Oeste 0 -- -- 62
2019-04-14 12:00:00 17.2 7 Noroeste 12 Noroeste 0 -- -- 73
2019-04-14 11:00:00 14.7 5 Norte 13 Noroeste 0 -- -- 80
2019-04-14 10:00:00 11.9 3 Oeste 4 Oeste 0 -- -- 87
2019-04-14 09:00:00 9.3 0 Calma 3 Sudoeste 0 -- -- 91
2019-04-14 08:00:00 6.6 0 Calma 4 Norte 0 -- -- 94
2019-04-14 07:00:00 6.4 2 Sur 3 Sur 0 -- -- 92
2019-04-14 06:00:00 6.8 0 Calma 2 Sur 0 -- -- 91
2019-04-14 05:00:00 7.1 2 Sur 3 Sur 0 -- -- 90
2019-04-14 04:00:00 7.5 0 Calma 3 Sur 0 -- -- 88
2019-04-14 03:00:00 8.1 2 Sur 4 Sur 0 -- -- 86
2019-04-14 02:00:00 8.6 0 Calma 4 Nordeste 0 -- -- 83
2019-04-14 01:00:00 9.6 0 Calma 4 Sudoeste 0 -- -- 79
2019-04-14 00:00:00 11 0 Calma 5 Nordeste 0 -- -- 74
2019-04-13 23:00:00 13.3 0 Calma 8 Nordeste 0 -- -- 62
2019-04-13 22:00:00 14.6 3 Este 9 Sur 0 -- -- 57
2019-04-13 21:00:00 18.7 3 Sudoeste 14 Noroeste 0 -- -- 46
2019-04-13 20:00:00 21.9 4 Noroeste 17 Oeste 0 -- -- 41
2019-04-13 19:00:00 22.8 8 Noroeste 18 Norte 0 -- -- 38
2019-04-13 18:00:00 23.3 7 Norte 19 Norte 0 -- -- 29
2019-04-13 17:00:00 23 6 Oeste 21 Nordeste 0 -- -- 30
2019-04-13 16:00:00 22.2 9 Nordeste 21 Nordeste 0 -- -- 29
2019-04-13 15:00:00 21.5 8 Norte 18 Norte 0 -- -- 28
2019-04-13 14:00:00 20.4 7 Norte 18 Norte 0 -- -- 30
2019-04-13 13:00:00 19.7 9 Norte 18 Norte 0 -- -- 33
2019-04-13 12:00:00 17.3 4 Oeste 6 Oeste 0 -- -- 51
2019-04-13 11:00:00 12.8 3 Oeste 6 Oeste 0 -- -- 64
2019-04-13 10:00:00 10 0 Calma 4 Noroeste 0 -- -- 71
2019-04-13 09:00:00 5.4 0 Calma 3 Nordeste 0 -- -- 94
2019-04-13 08:00:00 2 0 Calma 3 Nordeste 0 -- -- 93
2019-04-13 07:00:00 2.2 0 Calma 5 Nordeste 0 -- -- 92
2019-04-13 06:00:00 2.6 0 Calma 2 Nordeste 0 -- -- 92
2019-04-13 05:00:00 3.2 0 Calma 3 Norte 0 -- -- 90
2019-04-13 04:00:00 4.1 0 Calma 3 Este 0 -- -- 89
2019-04-13 03:00:00 4.9 0 Calma 3 Sudeste 0 -- -- 89
2019-04-13 02:00:00 5.7 0 Calma 4 Sudeste 0 -- -- 86
2019-04-13 01:00:00 6.5 0 Calma 3 Sur 0 -- -- 82
2019-04-13 00:00:00 7.5 0 Calma 5 Nordeste 0 -- -- 76
2019-04-12 23:00:00 9.1 3 Nordeste 5 Nordeste 0 -- -- 66
2019-04-12 22:00:00 11.5 3 Este 7 Sudeste 0 -- -- 58
2019-04-12 21:00:00 16.2 5 Sudeste 11 Norte 0 -- -- 41
2019-04-12 20:00:00 20.7 8 Norte 20 Nordeste 0 -- -- 31
2019-04-12 19:00:00 21.1 8 Norte 21 Nordeste 0 -- -- 28
2019-04-12 18:00:00 21.2 8 Norte 20 Norte 0 -- -- 27
2019-04-12 17:00:00 20.8 9 Norte 20 Norte 0 -- -- 30
2019-04-12 16:00:00 20.4 7 Noroeste 19 Norte 0 -- -- 31
2019-04-12 15:00:00 19.8 6 Noroeste 17 Noroeste 0 -- -- 35
2019-04-12 14:00:00 18.3 5 Noroeste 14 Norte 0 -- -- 35
2019-04-12 13:00:00 17.8 7 Oeste 12 Oeste 0 -- -- 38
2019-04-12 12:00:00 15.8 4 Oeste 9 Oeste 0 -- -- 45
2019-04-12 11:00:00 11.4 3 Oeste 6 Noroeste 0 -- -- 68
2019-04-12 10:00:00 8.4 2 Oeste 4 Oeste 0 -- -- 77
2019-04-12 09:00:00 4.6 0 Calma 3 Nordeste 0 -- -- 96
2019-04-12 08:00:00 1.7 0 Calma 2 Este 0 -- -- 94
2019-04-12 07:00:00 2.1 0 Calma 3 Sudeste 0 -- -- 93
2019-04-12 06:00:00 2.5 2 Este 3 Sudeste 0 -- -- 93
2019-04-12 05:00:00 2.9 0 Calma 3 Sur 0 -- -- 92
2019-04-12 04:00:00 3.4 0 Calma 3 Sur 0 -- -- 91
2019-04-12 03:00:00 4 0 Calma 3 Sur 0 -- -- 89
2019-04-12 02:00:00 4.7 2 Sur 3 Sur 0 -- -- 87
2019-04-12 01:00:00 5.6 0 Calma 4 Norte 0 -- -- 83
2019-04-12 00:00:00 6.7 0 Calma 4 Nordeste 0 -- -- 77
2019-04-11 23:00:00 7.9 3 Sur 4 Sur 0 -- -- 74
2019-04-11 22:00:00 10.3 2 Este 8 Este 0 -- -- 60
2019-04-11 21:00:00 14.8 4 Nordeste 17 Nordeste 0 -- -- 39
2019-04-11 20:00:00 17.6 6 Este 21 Nordeste 0 -- -- 34
2019-04-11 19:00:00 18.3 12 Nordeste 24 Norte 0 -- -- 36
2019-04-11 18:00:00 18.1 8 Este 23 Nordeste 0 -- -- 34
2019-04-11 17:00:00 18.4 7 Norte 24 Nordeste 0 -- -- 34
2019-04-11 16:00:00 18.8 6 Nordeste 24 Norte 0 -- -- 36
2019-04-11 15:00:00 18.2 10 Noroeste 22 Noroeste 0 -- -- 37
2019-04-11 14:00:00 17.2 7 Noroeste 13 Oeste 0 -- -- 43
2019-04-11 13:00:00 14.9 5 Noroeste 13 Noroeste 0 -- -- 51
2019-04-11 12:00:00 13.9 5 Noroeste 13 Noroeste 0 -- -- 60
2019-04-11 11:00:00 11.7 2 Noroeste 9 Norte 0 -- -- 68
2019-04-11 10:00:00 9.1 5 Norte 13 Norte 0 -- -- 77
2019-04-11 09:00:00 6.4 0 Calma 6 Nordeste 0 -- -- 91
2019-04-11 08:00:00 4.9 2 Este 9 Nordeste 0 -- -- 90
2019-04-11 07:00:00 5 2 Este 10 Nordeste 0 -- -- 88
2019-04-11 06:00:00 7.1 7 Nordeste 21 Nordeste 0 -- -- 85
2019-04-11 05:00:00 7.5 8 Nordeste 17 Nordeste 0 -- -- 85
2019-04-11 04:00:00 7.6 0 Calma 12 Este 0 -- -- 82
2019-04-11 03:00:00 8.7 5 Nordeste 12 Nordeste 0 -- -- 79
2019-04-11 02:00:00 9 3 Nordeste 12 Este 0 -- -- 77
2019-04-11 01:00:00 10.1 6 Nordeste 15 Nordeste 0 -- -- 71
2019-04-11 00:00:00 8.8 3 Nordeste 10 Nordeste 0 -- -- 74
2019-04-10 23:00:00 10 3 Nordeste 10 Nordeste 0 -- -- 67
2019-04-10 22:00:00 9.4 2 Este 14 Norte 0 -- -- 71
2019-04-10 21:00:00 14 7 Norte 30 Norte 0 -- -- 52
2019-04-10 20:00:00 16 13 Nordeste 30 Nordeste 0 -- -- 44
2019-04-10 19:00:00 16.1 15 Norte 37 Norte 0 -- -- 46
2019-04-10 18:00:00 16.6 15 Norte 34 Norte 0 -- -- 45
2019-04-10 17:00:00 16.1 18 Norte 34 Nordeste 0 -- -- 44
2019-04-10 16:00:00 16.4 19 Norte 34 Norte 0 -- -- 44
2019-04-10 15:00:00 15.1 17 Norte 31 Norte 0 -- -- 49
2019-04-10 14:00:00 14.1 15 Norte 31 Norte 0 -- -- 53
2019-04-10 13:00:00 12.5 11 Norte 28 Norte 0 -- -- 61
2019-04-10 12:00:00 11.2 13 Norte 27 Nordeste 0 -- -- 68
2019-04-10 11:00:00 10.2 14 Norte 27 Nordeste 0 -- -- 74
2019-04-10 10:00:00 8.8 12 Norte 24 Norte 0 -- -- 82
2019-04-10 09:00:00 7.2 9 Nordeste 24 Norte 0 -- -- 89
2019-04-10 08:00:00 6.5 4 Nordeste 14 Nordeste 0 -- -- 90
2019-04-10 07:00:00 6.9 5 Norte 21 Nordeste 0 -- -- 89
2019-04-10 06:00:00 7.5 12 Nordeste 23 Norte 0 -- -- 89
2019-04-10 05:00:00 7.4 9 Norte 20 Nordeste 0 -- -- 89
2019-04-10 04:00:00 7.2 8 Nordeste 16 Norte 0 -- -- 88
2019-04-10 03:00:00 7.8 7 Nordeste 22 Nordeste 0 -- -- 86
2019-04-10 02:00:00 8.3 11 Nordeste 22 Nordeste 0 -- -- 85
2019-04-10 01:00:00 8.5 8 Nordeste 15 Noroeste 0 -- -- 87
2019-04-10 00:00:00 8.3 0 Calma 5 Este 0.2 -- -- 94
2019-04-09 23:00:00 8.1 0 Calma 6 Este 0 -- -- 92
2019-04-09 22:00:00 8.4 2 Este 4 Nordeste 0 -- -- 93
2019-04-09 21:00:00 9.3 0 Calma 6 Nordeste 0 -- -- 87
2019-04-09 20:00:00 10.5 2 Este 49 Norte 1.4 -- -- 87
2019-04-09 19:00:00 14.3 9 Norte 34 Nordeste 0 -- -- 60
2019-04-09 18:00:00 13.9 14 Nordeste 30 Nordeste 0 -- -- 67
2019-04-09 17:00:00 16 15 Norte 35 Noroeste 0 -- -- 48
2019-04-09 16:00:00 15.3 15 Norte 33 Noroeste 0 -- -- 54
2019-04-09 15:00:00 15.3 14 Noroeste 32 Noroeste 0 -- -- 55
2019-04-09 14:00:00 13.9 10 Noroeste 34 Norte 0 -- -- 61
2019-04-09 13:00:00 12.4 12 Norte 23 Norte 0 -- -- 68
2019-04-09 12:00:00 11.9 9 Norte 21 Norte 0 -- -- 67
2019-04-09 11:00:00 10 4 Noroeste 14 Norte 0 -- -- 82
2019-04-09 10:00:00 10 3 Sudoeste 5 Sur 0 -- -- 84
2019-04-09 09:00:00 6.8 0 Calma 5 Sudeste 0 -- -- 97
2019-04-09 08:00:00 4.6 0 Calma 2 Sur 0 -- -- 95
2019-04-09 07:00:00 4.6 0 Calma 3 Sur 0 -- -- 93
2019-04-09 06:00:00 5.7 2 Sur 9 Nordeste 0 -- -- 90
2019-04-09 05:00:00 6.8 5 Nordeste 11 Nordeste 0 -- -- 89
2019-04-09 04:00:00 6.4 5 Nordeste 10 Nordeste 0 -- -- 93
2019-04-09 03:00:00 5.8 4 Nordeste 8 Nordeste 0 -- -- 94
2019-04-09 02:00:00 6.5 0 Calma 8 Nordeste 0.2 -- -- 89
2019-04-09 01:00:00 7.7 4 Nordeste 13 Norte 0 -- -- 88
2019-04-09 00:00:00 8.4 5 Nordeste 15 Nordeste 0 -- -- 89
2019-04-08 23:00:00 9.7 10 Nordeste 19 Norte 0 -- -- 92
2019-04-08 22:00:00 9.3 3 Sur 5 Nordeste 0 -- -- 91
2019-04-08 21:00:00 10.6 2 Este 35 Norte 2.2 -- -- 86
2019-04-08 20:00:00 15.1 9 Noroeste 24 Noroeste 0 -- -- 76
2019-04-08 19:00:00 15.5 8 Noroeste 23 Noroeste 0 -- -- 78
2019-04-08 18:00:00 15.2 11 Noroeste 23 Noroeste 0 -- -- 73
2019-04-08 17:00:00 14.4 7 Norte 16 Norte 1 -- -- 82
2019-04-08 16:00:00 15 6 Noroeste 17 Oeste 0 -- -- 86
2019-04-08 15:00:00 13.6 6 Noroeste 22 Noroeste 3.2 -- -- 90
2019-04-08 14:00:00 14.4 7 Noroeste 18 Noroeste 1.6 -- -- 85
2019-04-08 13:00:00 12.8 8 Noroeste 23 Noroeste 0.4 -- -- 85
2019-04-08 12:00:00 13.1 8 Noroeste 17 Oeste 0.6 -- -- 85
2019-04-08 11:00:00 12 8 Noroeste 18 Oeste 0.2 -- -- 88
2019-04-08 10:00:00 11.9 2 Oeste 12 Noroeste 0 -- -- 89
2019-04-08 09:00:00 11.1 4 Noroeste 10 Noroeste 0.2 -- -- 91
2019-04-08 08:00:00 11.1 2 Norte 13 Noroeste 0.4 -- -- 90
2019-04-08 07:00:00 11.2 3 Noroeste 18 Norte 0 -- -- 88
2019-04-08 06:00:00 11.2 6 Noroeste 13 Noroeste 0 -- -- 88
2019-04-08 05:00:00 10.8 2 Noroeste 14 Norte 0 -- -- 91
2019-04-08 04:00:00 11.3 3 Norte 17 Norte 1 -- -- 91
2019-04-08 03:00:00 11.2 0 Calma 10 Noroeste 0.2 -- -- 92
2019-04-08 02:00:00 11.1 0 Calma 6 Noroeste 0 -- -- 93
2019-04-08 01:00:00 10.8 2 Sur 5 Sur 0 -- -- 94
2019-04-08 00:00:00 10.9 0 Calma 8 Sur 0 -- -- 93
2019-04-07 23:00:00 11.1 0 Calma 5 Sur 0.4 -- -- 92
2019-04-07 22:00:00 11.3 2 Sur 4 Sudoeste 0.2 -- -- 90
2019-04-07 21:00:00 11.4 0 Calma 7 Norte 0 -- -- 87
2019-04-07 20:00:00 11.5 3 Noroeste 15 Noroeste 0 -- -- 85
2019-04-07 19:00:00 11.9 5 Noroeste 19 Oeste 0 -- -- 84
2019-04-07 18:00:00 11.7 8 Noroeste 18 Oeste 0 -- -- 82
2019-04-07 17:00:00 12.2 8 Noroeste 20 Oeste 0 -- -- 75
2019-04-07 16:00:00 12.5 6 Oeste 18 Oeste 0 -- -- 73
2019-04-07 15:00:00 12.2 4 Noroeste 12 Nordeste 0 -- -- 69
2019-04-07 14:00:00 11.3 5 Norte 14 Norte 0 -- -- 75
2019-04-07 13:00:00 11 8 Nordeste 21 Norte 0 -- -- 69
2019-04-07 12:00:00 11 8 Norte 23 Norte 0 -- -- 67
2019-04-07 11:00:00 10.5 9 Norte 23 Noroeste 0 -- -- 70
2019-04-07 10:00:00 9.1 4 Norte 16 Norte 0 -- -- 80
2019-04-07 09:00:00 8.1 4 Norte 18 Norte 0 -- -- 83
2019-04-07 08:00:00 7 2 Nordeste 7 Norte 0 -- -- 88
2019-04-07 07:00:00 7.1 3 Nordeste 18 Nordeste 0 -- -- 87
2019-04-07 06:00:00 7.4 3 Nordeste 12 Nordeste 0.4 -- -- 88
2019-04-07 05:00:00 8.4 8 Norte 22 Norte 0 -- -- 78
2019-04-07 04:00:00 8.5 8 Norte 24 Noroeste 0 -- -- 76
2019-04-07 03:00:00 8.6 10 Noroeste 22 Noroeste 0 -- -- 76
2019-04-07 02:00:00 8.7 8 Norte 30 Noroeste 0 -- -- 75
2019-04-07 01:00:00 8.2 2 Nordeste 21 Norte 0 -- -- 80
2019-04-07 00:00:00 7 4 Nordeste 13 Noroeste 0 -- -- 86
2019-04-06 23:00:00 6 0 Calma 12 Este 0 -- -- 85
2019-04-06 22:00:00 7 3 Nordeste 18 Norte 0 -- -- 82
2019-04-06 21:00:00 8.1 12 Nordeste 27 Nordeste 0 -- -- 78
2019-04-06 20:00:00 9.3 7 Nordeste 31 Noroeste 0.4 -- -- 69
2019-04-06 19:00:00 10.6 5 Noroeste 17 Norte 0.2 -- -- 76
2019-04-06 18:00:00 8.3 14 Norte 42 Nordeste 0.4 -- -- 80
2019-04-06 17:00:00 10.3 12 Norte 30 Nordeste 1.8 -- -- 80
2019-04-06 16:00:00 13.4 12 Noroeste 32 Oeste 0 -- -- 59
2019-04-06 15:00:00 12.6 10 Noroeste 25 Norte 0 -- -- 62
2019-04-06 14:00:00 10.5 10 Noroeste 40 Norte 0 -- -- 72
2019-04-06 13:00:00 8.7 9 Norte 19 Noroeste 0.4 -- -- 80
2019-04-06 12:00:00 9.6 10 Noroeste 24 Noroeste 0 -- -- 67
2019-04-06 11:00:00 8.8 6 Norte 15 Norte 0 -- -- 76
2019-04-06 10:00:00 7.5 4 Noroeste 17 Noroeste 0 -- -- 83
2019-04-06 09:00:00 7 3 Noroeste 12 Oeste 0 -- -- 83
2019-04-06 08:00:00 6.5 6 Noroeste 19 Noroeste 0 -- -- 86
2019-04-06 07:00:00 6.6 4 Noroeste 12 Noroeste 0 -- -- 85
2019-04-06 06:00:00 6.7 5 Noroeste 10 Noroeste 0 -- -- 83
2019-04-06 05:00:00 6.6 6 Noroeste 15 Norte 0 -- -- 83
2019-04-06 04:00:00 6.6 6 Noroeste 13 Oeste 0 -- -- 82
2019-04-06 03:00:00 6.6 3 Noroeste 9 Noroeste 0 -- -- 81
2019-04-06 02:00:00 6.4 5 Nordeste 17 Nordeste 0 -- -- 79
2019-04-06 01:00:00 6.7 5 Norte 19 Norte 0 -- -- 81
2019-04-06 00:00:00 6.8 3 Nordeste 13 Norte 0 -- -- 80
2019-04-05 23:00:00 6.9 4 Nordeste 18 Noroeste 0 -- -- 79
2019-04-05 22:00:00 7.4 5 Norte 35 Norte 0.2 -- -- 79
2019-04-05 21:00:00 9.4 18 Noroeste 36 Noroeste 0 -- -- 68
2019-04-05 20:00:00 11.9 10 Noroeste 25 Norte 0 -- -- 48
2019-04-05 19:00:00 12.6 15 Norte 33 Norte 0 -- -- 40
2019-04-05 18:00:00 11.8 24 Norte 44 Norte 0 -- -- 47
2019-04-05 17:00:00 13 17 Norte 39 Norte 0.2 -- -- 43
2019-04-05 16:00:00 9.9 7 Norte 37 Nordeste 0 -- -- 66
2019-04-05 15:00:00 11.1 13 Norte 29 Norte 0 -- -- 62
2019-04-05 14:00:00 9.8 14 Norte 26 Norte 0.2 -- -- 76
2019-04-05 13:00:00 8 14 Norte 31 Noroeste 0.6 -- -- 81
2019-04-05 12:00:00 9 5 Oeste 15 Oeste 0 -- -- 90
2019-04-05 11:00:00 7.7 3 Oeste 23 Sudoeste 0.4 -- -- 92
2019-04-05 10:00:00 7.5 6 Oeste 16 Oeste 0 -- -- 89
2019-04-05 09:00:00 7 5 Sudoeste 19 Sur 0.6 -- -- 90
2019-04-05 08:00:00 7 3 Sudoeste 11 Oeste 3.6 -- -- 89
2019-04-05 07:00:00 8.2 5 Noroeste 21 Noroeste 0.2 -- -- 80
2019-04-05 06:00:00 8.4 3 Noroeste 12 Noroeste 0 -- -- 70
2019-04-05 05:00:00 8.3 4 Noroeste 17 Oeste 0 -- -- 71
2019-04-05 04:00:00 8.5 5 Sudoeste 16 Oeste 0 -- -- 72
2019-04-05 03:00:00 9.2 4 Oeste 11 Oeste 0 -- -- 67
2019-04-05 02:00:00 9.2 6 Noroeste 22 Oeste 0 -- -- 67
2019-04-05 01:00:00 9.6 10 Noroeste 23 Noroeste 0 -- -- 64
2019-04-05 00:00:00 10.3 6 Noroeste 23 Noroeste 0 -- -- 60
2019-04-04 23:00:00 11.4 8 Noroeste 27 Oeste 0 -- -- 54
2019-04-04 22:00:00 12.6 11 Noroeste 27 Noroeste 0 -- -- 45
2019-04-04 21:00:00 13.9 9 Noroeste 27 Noroeste 0 -- -- 37
2019-04-04 20:00:00 15.9 13 Oeste 28 Oeste 0 -- -- 33
2019-04-04 19:00:00 17.1 13 Noroeste 29 Noroeste 0 -- -- 34
2019-04-04 18:00:00 18 10 Oeste 28 Oeste 0 -- -- 35
2019-04-04 17:00:00 18.3 7 Oeste 22 Sudoeste 0 -- -- 35
2019-04-04 16:00:00 18 6 Noroeste 14 Oeste 0 -- -- 33
2019-04-04 15:00:00 16.7 4 Nordeste 14 Noroeste 0 -- -- 29
2019-04-04 14:00:00 15.9 8 Oeste 19 Sudoeste 0 -- -- 33
2019-04-04 13:00:00 14.9 5 Sudoeste 23 Sur 0 -- -- 35
2019-04-04 12:00:00 13.2 12 Sur 26 Sur 0 -- -- 37
2019-04-04 11:00:00 10.4 5 Noroeste 12 Oeste 0 -- -- 50
2019-04-04 10:00:00 7.3 5 Nordeste 11 Nordeste 0 -- -- 58
2019-04-04 09:00:00 3.4 3 Nordeste 8 Este 0 -- -- 71
2019-04-04 08:00:00 1.1 2 Nordeste 7 Nordeste 0 -- -- 75
2019-04-04 07:00:00 4 3 Este 12 Nordeste 0 -- -- 63
2019-04-04 06:00:00 3.4 4 Nordeste 8 Nordeste 0 -- -- 66
2019-04-04 05:00:00 3.6 3 Nordeste 8 Nordeste 0 -- -- 67
2019-04-04 04:00:00 6.3 5 Nordeste 13 Este 0 -- -- 56
2019-04-04 03:00:00 5.9 4 Nordeste 7 Nordeste 0 -- -- 58
2019-04-04 02:00:00 6.7 4 Nordeste 9 Nordeste 0 -- -- 55
2019-04-04 01:00:00 7.8 4 Este 15 Nordeste 0 -- -- 54
2019-04-04 00:00:00 10.6 5 Nordeste 18 Nordeste 0 -- -- 44
2019-04-03 23:00:00 11.7 8 Nordeste 18 Nordeste 0 -- -- 47
2019-04-03 22:00:00 13.2 6 Nordeste 21 Norte 0 -- -- 51
2019-04-03 21:00:00 14.8 9 Nordeste 28 Nordeste 0 -- -- 47
2019-04-03 20:00:00 17.1 15 Nordeste 35 Nordeste 0 -- -- 42
2019-04-03 19:00:00 18.9 18 Nordeste 41 Norte 0 -- -- 41
2019-04-03 18:00:00 19.8 15 Norte 33 Norte 0 -- -- 35
2019-04-03 17:00:00 21.3 14 Norte 28 Noroeste 0 -- -- 29
2019-04-03 16:00:00 20.6 10 Noroeste 29 Noroeste 0 -- -- 42
2019-04-03 15:00:00 20.4 11 Norte 30 Norte 0 -- -- 34
2019-04-03 14:00:00 19.6 14 Norte 28 Norte 0 -- -- 35
2019-04-03 13:00:00 18.4 5 Nordeste 22 Nordeste 0 -- -- 40
2019-04-03 12:00:00 16.3 8 Norte 13 Norte 0 -- -- 48
2019-04-03 11:00:00 12.3 4 Oeste 6 Oeste 0 -- -- 76
2019-04-03 10:00:00 9.5 0 Calma 5 Norte 0 -- -- 87
2019-04-03 09:00:00 6.3 2 Nordeste 3 Nordeste 0 -- -- 96
2019-04-03 08:00:00 5 0 Calma 2 Nordeste 0 -- -- 94
2019-04-03 07:00:00 5.8 0 Calma 3 Sur 0 -- -- 95
2019-04-03 06:00:00 5.3 0 Calma 2 Sur 0 -- -- 94
2019-04-03 05:00:00 5.8 0 Calma 3 Este 0 -- -- 93
2019-04-03 04:00:00 6.6 0 Calma 2 Nordeste 0 -- -- 93
2019-04-03 03:00:00 7.2 0 Calma 3 Sur 0 -- -- 92
2019-04-03 02:00:00 7.8 0 Calma 3 Sur 0 -- -- 92
2019-04-03 01:00:00 8.5 0 Calma 3 Nordeste 0 -- -- 90
2019-04-03 00:00:00 9.6 2 Nordeste 4 Nordeste 0 -- -- 86
2019-04-02 23:00:00 10.9 0 Calma 5 Nordeste 0 -- -- 80
2019-04-02 22:00:00 12.8 4 Este 7 Este 0 -- -- 75
2019-04-02 21:00:00 16.1 4 Sudoeste 12 Noroeste 0 -- -- 62
2019-04-02 20:00:00 18.6 3 Noroeste 16 Oeste 0 -- -- 56
2019-04-02 19:00:00 19.5 7 Noroeste 20 Oeste 0 -- -- 53
2019-04-02 18:00:00 18.7 4 Oeste 15 Noroeste 0 -- -- 55
2019-04-02 17:00:00 20.3 8 Oeste 17 Oeste 0 -- -- 51
2019-04-02 16:00:00 19.8 7 Oeste 16 Oeste 0 -- -- 48
2019-04-02 15:00:00 19.2 8 Oeste 13 Oeste 0 -- -- 48
2019-04-02 14:00:00 17.7 6 Noroeste 14 Noroeste 0 -- -- 54
2019-04-02 13:00:00 16 6 Oeste 12 Noroeste 0 -- -- 62
2019-04-02 12:00:00 14.5 3 Sudoeste 8 Sudoeste 0 -- -- 69
2019-04-02 11:00:00 12.7 0 Calma 7 Nordeste 0 -- -- 79
2019-04-02 10:00:00 11.3 2 Sur 4 Sur 0 -- -- 94
2019-04-02 09:00:00 9.7 0 Calma 4 Norte 0 -- -- 95
2019-04-02 08:00:00 8.7 2 Sur 4 Sur 0 -- -- 93
2019-04-02 07:00:00 8.7 0 Calma 3 Este 0 -- -- 94
2019-04-02 06:00:00 9.7 0 Calma 4 Sur 0 -- -- 87
2019-04-02 05:00:00 11.2 0 Calma 5 Sur 0 -- -- 90
2019-04-02 04:00:00 10.7 3 Sur 5 Sur 0 -- -- 92
2019-04-02 03:00:00 10.8 3 Sur 5 Sur 0 -- -- 88
2019-04-02 02:00:00 10.3 2 Sur 6 Sur 0 -- -- 93
2019-04-02 01:00:00 8.8 2 Este 5 Sudoeste 0 -- -- 91
2019-04-02 00:00:00 8.6 2 Sur 4 Sur 0 -- -- 92
2019-04-01 23:00:00 8.9 3 Sudeste 5 Sur 0 -- -- 88
2019-04-01 22:00:00 10.9 0 Calma 9 Oeste 0 -- -- 79
2019-04-01 21:00:00 13.7 2 Sudoeste 13 Sudoeste 0 -- -- 71
2019-04-01 20:00:00 14.9 4 Oeste 17 Oeste 0 -- -- 65
2019-04-01 19:00:00 16 6 Oeste 19 Oeste 0 -- -- 59
2019-04-01 18:00:00 16.5 8 Oeste 19 Oeste 0 -- -- 63
2019-04-01 17:00:00 15.9 3 Oeste 14 Oeste 0 -- -- 68
2019-04-01 16:00:00 16.4 8 Oeste 21 Oeste 0 -- -- 68
2019-04-01 15:00:00 16.9 9 Oeste 21 Sudoeste 0 -- -- 61
2019-04-01 14:00:00 17.4 12 Noroeste 21 Noroeste 0 -- -- 56
2019-04-01 13:00:00 16.2 8 Oeste 22 Noroeste 0 -- -- 62
2019-04-01 12:00:00 15 6 Oeste 14 Oeste 0 -- -- 72
2019-04-01 11:00:00 13.5 2 Oeste 6 Oeste 0 -- -- 79
2019-04-01 10:00:00 12.6 2 Sur 5 Sur 0 -- -- 86
2019-04-01 09:00:00 11.1 0 Calma 5 Sur 0 -- -- 93
2019-04-01 08:00:00 10.8 0 Calma 4 Oeste 0 -- -- 94
2019-04-01 07:00:00 10.2 0 Calma 5 Oeste 0 -- -- 94
2019-04-01 06:00:00 10.5 0 Calma 4 Oeste 0 -- -- 93
2019-04-01 05:00:00 10.6 0 Calma 4 Sur 0 -- -- 94
2019-04-01 04:00:00 10.7 2 Sudoeste 6 Oeste 0 -- -- 95
2019-04-01 03:00:00 10.3 0 Calma 2 Sur 0 -- -- 95
2019-04-01 02:00:00 10.1 0 Calma 4 Sur 0 -- -- 93
2019-04-01 01:00:00 10.9 2 Sudeste 4 Sudoeste 0 -- -- 93
2019-04-01 00:00:00 11.2 2 Sudoeste 4 Sur 0 -- -- 94
2019-03-31 23:00:00 11.2 0 Calma 3 Sur 0 -- -- 93
2019-03-31 22:00:00 11.4 0 Calma 8 Noroeste 0.2 -- -- 91
2019-03-31 21:00:00 11.7 3 Este 6 Este 0.4 -- -- 88
2019-03-31 20:00:00 13 2 Nordeste 11 Norte 0.4 -- -- 84
2019-03-31 19:00:00 14.7 4 Oeste 10 Oeste 0 -- -- 76
2019-03-31 18:00:00 14.9 2 Norte 17 Este 0 -- -- 66
2019-03-31 17:00:00 15.5 10 Este 21 Este 0 -- -- 66
2019-03-31 16:00:00 17.8 6 Sudoeste 17 Sur 0 -- -- 58
2019-03-31 15:00:00 16.5 3 Oeste 10 Oeste 0 -- -- 62
2019-03-31 14:00:00 16.6 6 Oeste 12 Oeste 0 -- -- 63
2019-03-31 13:00:00 14.3 4 Noroeste 8 Noroeste 0 -- -- 76
2019-03-31 12:00:00 13.2 4 Noroeste 7 Noroeste 0 -- -- 84
2019-03-31 11:00:00 11.9 0 Calma 9 Sur 0 -- -- 87
2019-03-31 10:00:00 11.6 2 Sur 4 Sur 0 -- -- 89
2019-03-31 09:00:00 10.9 0 Calma 7 Sur 0 -- -- 90
2019-03-31 08:00:00 10.7 5 Sur 9 Sur 0.2 -- -- 90
2019-03-31 07:00:00 10.8 0 Calma 7 Sur 0 -- -- 90
2019-03-31 06:00:00 10.8 4 Sur 6 Sur 0 -- -- 90
2019-03-31 05:00:00 11.2 0 Calma 11 Sur 0 -- -- 90
2019-03-31 03:00:00 11.1 0 Calma 4 Nordeste 0 -- -- 92
2019-03-31 01:00:00 11 2 Este 5 Sur 0 -- -- 91
2019-03-31 00:00:00 11.6 0 Calma 4 Sur 0 -- -- 89
2019-03-30 23:00:00 12.2 0 Calma 7 Este 2.8 -- -- 86
2019-03-30 22:00:00 14.2 2 Sudoeste 13 Oeste 0 -- -- 63
2019-03-30 21:00:00 15.2 3 Oeste 18 Oeste 0 -- -- 58
2019-03-30 20:00:00 16.8 5 Oeste 18 Oeste 0 -- -- 53
2019-03-30 19:00:00 19 4 Noroeste 12 Noroeste 0 -- -- 46
2019-03-30 18:00:00 19.8 4 Oeste 18 Oeste 0 -- -- 46
2019-03-30 17:00:00 22 7 Oeste 17 Oeste 0 -- -- 37
2019-03-30 16:00:00 21.8 7 Noroeste 17 Oeste 0 -- -- 36
2019-03-30 15:00:00 21.2 8 Oeste 16 Oeste 0 -- -- 37
2019-03-30 14:00:00 20.8 6 Oeste 19 Sur 0 -- -- 36
2019-03-30 13:00:00 19.7 8 Sudoeste 25 Sudoeste 0 -- -- 39
2019-03-30 12:00:00 18.1 10 Sudoeste 19 Sur 0 -- -- 40
2019-03-30 11:00:00 16.4 8 Sudoeste 19 Sur 0 -- -- 46
2019-03-30 10:00:00 13.8 6 Sudoeste 17 Sudoeste 0 -- -- 54
2019-03-30 09:00:00 10.4 0 Calma 3 Sur 0 -- -- 79
2019-03-30 08:00:00 5.5 0 Calma 2 Sur 0 -- -- 94
2019-03-30 07:00:00 4.8 0 Calma 3 Este 0 -- -- 91
2019-03-30 06:00:00 5.7 0 Calma 4 Norte 0 -- -- 88
2019-03-30 05:00:00 6.9 2 Sur 5 Sur 0 -- -- 85
2019-03-30 04:00:00 8.4 4 Sur 8 Sur 0 -- -- 83
2019-03-30 03:00:00 9 2 Sur 9 Sur 0 -- -- 80
2019-03-30 02:00:00 8.3 2 Sur 5 Sur 0 -- -- 80
2019-03-30 01:00:00 10.9 4 Sudoeste 11 Sudoeste 0 -- -- 69
2019-03-30 00:00:00 11.4 0 Calma 5 Oeste 0 -- -- 63
2019-03-29 23:00:00 12.7 2 Sur 5 Oeste 0 -- -- 58
2019-03-29 22:00:00 13.7 2 Sur 6 Sudeste 0 -- -- 54
2019-03-29 21:00:00 14.7 3 Sur 13 Sudoeste 0 -- -- 51
2019-03-29 20:00:00 16.2 4 Oeste 16 Oeste 0 -- -- 46
2019-03-29 19:00:00 19.2 0 Calma 6 Oeste 0 -- -- 31
2019-03-29 18:00:00 20 3 Oeste 11 Oeste 0 -- -- 27
2019-03-29 17:00:00 20 6 Oeste 17 Oeste 0 -- -- 29
2019-03-29 16:00:00 19.8 7 Oeste 21 Noroeste 0 -- -- 28
2019-03-29 15:00:00 19.5 7 Oeste 17 Sudoeste 0 -- -- 27
2019-03-29 14:00:00 18.8 9 Oeste 22 Sur 0 -- -- 26
2019-03-29 13:00:00 17.5 8 Sur 27 Sur 0 -- -- 26
2019-03-29 12:00:00 16.2 11 Sur 22 Sur 0 -- -- 26
2019-03-29 11:00:00 13.2 3 Oeste 9 Oeste 0 -- -- 39
2019-03-29 10:00:00 9 0 Calma 5 Oeste 0 -- -- 64
2019-03-29 09:00:00 6.5 0 Calma 3 Sur 0 -- -- 76
2019-03-29 08:00:00 0.6 0 Calma 2 Sur 0 -- -- 94
2019-03-29 07:00:00 -0.2 0 Calma 2 Sudeste 0 -- -- 92
2019-03-29 06:00:00 0.5 0 Calma 2 Sur 0 -- -- 91
2019-03-29 05:00:00 1.2 2 Nordeste 4 Nordeste 0 -- -- 90
2019-03-29 04:00:00 1.6 0 Calma 4 Noroeste 0 -- -- 87
2019-03-29 03:00:00 2.4 0 Calma 4 Este 0 -- -- 85
2019-03-29 02:00:00 3.1 0 Calma 3 Sur 0 -- -- 79
2019-03-29 01:00:00 4.4 0 Calma 3 Este 0 -- -- 74
2019-03-29 00:00:00 5.7 0 Calma 6 Sur 0 -- -- 63
2019-03-28 23:00:00 6.4 3 Sur 6 Sur 0 -- -- 58
2019-03-28 22:00:00 7.3 3 Sudeste 5 Sur 0 -- -- 54
2019-03-28 21:00:00 10.5 2 Sudeste 9 Oeste 0 -- -- 42
2019-03-28 20:00:00 12.7 0 Calma 6 Sur 0 -- -- 32
2019-03-28 19:00:00 18.9 5 Sudoeste 15 Sur 0 -- -- 20
2019-03-28 18:00:00 20.1 5 Oeste 23 Sur 0 -- -- 18
2019-03-28 17:00:00 19.8 9 Sudoeste 26 Sur 0 -- -- 19
2019-03-28 16:00:00 19.4 8 Sudoeste 26 Sudoeste 0 -- -- 20
2019-03-28 15:00:00 18.5 8 Sur 27 Sur 0 -- -- 23
2019-03-28 14:00:00 17.7 13 Sur 26 Sur 0 -- -- 22
2019-03-28 13:00:00 16.7 10 Sudoeste 30 Sur 0 -- -- 24
2019-03-28 12:00:00 15.5 14 Sur 25 Sur 0 -- -- 28
2019-03-28 11:00:00 14.7 9 Sudoeste 31 Sudoeste 0 -- -- 28
2019-03-28 10:00:00 12.8 11 Sur 22 Sur 0 -- -- 36
2019-03-28 09:00:00 7.4 0 Calma 4 Nordeste 0 -- -- 84
2019-03-28 08:00:00 2.7 0 Calma 3 Sudoeste 0 -- -- 95
2019-03-28 07:00:00 2.1 0 Calma 3 Nordeste 0 -- -- 93
2019-03-28 06:00:00 2.6 0 Calma 3 Sudeste 0 -- -- 92
2019-03-28 05:00:00 2.9 0 Calma 3 Sur 0 -- -- 91
2019-03-28 04:00:00 3.3 2 Sur 3 Sur 0 -- -- 90
2019-03-28 03:00:00 4 0 Calma 2 Sudeste 0 -- -- 87
2019-03-28 02:00:00 5 0 Calma 3 Sur 0 -- -- 83
2019-03-28 01:00:00 6.2 0 Calma 6 Sur 0 -- -- 77
2019-03-28 00:00:00 6.5 3 Sur 10 Sur 0 -- -- 72
2019-03-27 23:00:00 8.6 4 Sur 9 Sur 0 -- -- 62
2019-03-27 22:00:00 8.4 3 Sudoeste 15 Oeste 0 -- -- 57
2019-03-27 21:00:00 8.7 0 Calma 4 Norte 0 -- -- 48
2019-03-27 20:00:00 12.6 2 Sur 13 Sudoeste 0 -- -- 34
2019-03-27 19:00:00 18.4 6 Sudoeste 20 Sur 0 -- -- 23
2019-03-27 18:00:00 19.6 7 Sudoeste 24 Sur 0 -- -- 22
2019-03-27 17:00:00 19.9 10 Sudoeste 24 Oeste 0 -- -- 22
2019-03-27 16:00:00 19.8 10 Sudoeste 31 Sudoeste 0 -- -- 23
2019-03-27 15:00:00 19.5 14 Sudoeste 30 Oeste 0 -- -- 23
2019-03-27 14:00:00 19.2 12 Sudoeste 27 Sudoeste 0 -- -- 23
2019-03-27 13:00:00 18.1 10 Sur 30 Sur 0 -- -- 24
2019-03-27 12:00:00 16.9 6 Este 22 Sur 0 -- -- 28
2019-03-27 11:00:00 15.6 6 Sur 33 Sudoeste 0 -- -- 29
2019-03-27 10:00:00 13.5 16 Sur 34 Sudeste 0 -- -- 32
2019-03-27 09:00:00 12 15 Sur 32 Sur 0 -- -- 36
2019-03-27 08:00:00 8.2 6 Sur 17 Sur 0 -- -- 52
2019-03-27 07:00:00 2.8 0 Calma 5 Este 0 -- -- 87
2019-03-27 06:00:00 3.5 0 Calma 5 Este 0 -- -- 86
2019-03-27 05:00:00 4.2 0 Calma 5 Norte 0 -- -- 79
2019-03-27 04:00:00 5.9 3 Sur 7 Sur 0 -- -- 70
2019-03-27 03:00:00 8.9 3 Nordeste 15 Sudeste 0 -- -- 67
2019-03-27 02:00:00 10.1 2 Este 17 Sur 0 -- -- 64
2019-03-27 01:00:00 10.4 3 Sur 15 Sur 0 -- -- 64
2019-03-27 00:00:00 14.2 10 Sur 24 Sur 0 -- -- 51